This is the latest recevied weather packets stored in our database for station/object N0TKN. If no packets are shown the sender has not sent any weather packets the latest 10 day(s).
| Time | Temp. | Humidity | Pressure | Rain* | Wind** | Luminosity | Snow |
|---|---|---|---|---|---|---|---|
| 1777814117 | 11.11° C | 64% | 1015.8 hPa | 0 mm | - | 314 W/m² | - |
| 1777813517 | 10.56° C | 66% | 1015.7 hPa | 0 mm | - | 276 W/m² | - |
| 1777812917 | 10° C | 66% | 1016 hPa | 0 mm | - | 240 W/m² | - |
| 1777812317 | 9.44° C | 69% | 1016.1 hPa | 0 mm | - | 206 W/m² | - |
| 1777811718 | 8.89° C | 71% | 1015.9 hPa | 0 mm | - | 174 W/m² | - |
| 1777811117 | 8.33° C | 72% | 1016.1 hPa | 0 mm | - | 142 W/m² | - |
| 1777810518 | 7.78° C | 76% | 1015.9 hPa | 0 mm | - | 113 W/m² | - |
| 1777809918 | 6.67° C | 82% | 1016.2 hPa | 0 mm | - | 74 W/m² | - |
| 1777809318 | 6.11° C | 83% | 1016.5 hPa | 0 mm | - | 43 W/m² | - |
| 1777808718 | 6.11° C | 84% | 1016.5 hPa | 0 mm | - | 31 W/m² | - |
| 1777808115 | 5.56° C | 85% | 1016.5 hPa | 0 mm | - | 22 W/m² | - |
| 1777807516 | 5.56° C | 85% | 1016.6 hPa | 0 mm | - | 13 W/m² | - |
| 1777806916 | 5.56° C | 86% | 1016.7 hPa | 0 mm | - | 5 W/m² | - |
| 1777806315 | 5.56° C | 86% | 1016.8 hPa | 0 mm | - | 2 W/m² | - |
| 1777805715 | 5.56° C | 86% | 1016.9 hPa | 0 mm | - | 0 W/m² | - |
| 1777805116 | 5.56° C | 86% | 1016.9 hPa | 0 mm | - | 0 W/m² | - |
| 1777804516 | 5.56° C | 88% | 1016.9 hPa | 0 mm | - | 0 W/m² | - |
| 1777803916 | 5.56° C | 89% | 1016.9 hPa | 0 mm | - | 0 W/m² | - |
| 1777803316 | 5.56° C | 88% | 1016.8 hPa | 0 mm | - | 0 W/m² | - |
| 1777802717 | 5.56° C | 89% | 1017 hPa | 0 mm | - | 0 W/m² | - |
| 1777802117 | 5.56° C | 89% | 1017.2 hPa | 0 mm | - | 0 W/m² | - |
| 1777801517 | 5.56° C | 88% | 1017.2 hPa | 0 mm | - | 0 W/m² | - |
| 1777800917 | 5.56° C | 89% | 1017.3 hPa | 0 mm | - | 0 W/m² | - |
| 1777800317 | 5.56° C | 89% | 1017.3 hPa | 0 mm | - | 0 W/m² | - |
| 1777799717 | 5.56° C | 88% | 1017.4 hPa | 0 mm | - | 0 W/m² | - |
* Rain latest hour (hover to see other rain measurements)
** Current wind speed in m/s (hover to see current wind gust speed)